Terminal Aerodrome Forecast
Issued by NWS Wilmington, OH

Current Version | Previous Version | Text Only | Print | Product List | Glossary Off
Versions: 1 2 3 4 5 6 7 8 9 10 11 12 13 14 15

000
FTUS41 KILN 242205 AAA
TAFDAY
TAF AMD
KDAY 242205Z 2422/2518 06004KT 3SM BR BKN005 OVC012
     FM250100 01007KT 4SM BR OVC008
     FM250600 35006KT 2SM BR OVC005
     FM251400 35009KT 4SM BR BKN006 OVC010
     FM251700 33010KT P6SM BKN018=

USA.gov is the U.S. government's official web portal to all federal, state and local government web resources and services.